sensor_id;sensor_type;location;lat;lon;timestamp;P1;durP1;ratioP1;P2;durP2;ratioP2
59338;SDS011;45117;50.960;5.500;2023-07-28T00:01:24;2.63;;;1.33;;
59338;SDS011;45117;50.960;5.500;2023-07-28T00:03:50;1.60;;;1.35;;
59338;SDS011;45117;50.960;5.500;2023-07-28T00:06:17;2.10;;;1.40;;
59338;SDS011;45117;50.960;5.500;2023-07-28T00:08:44;1.83;;;1.38;;
59338;SDS011;45117;50.960;5.500;2023-07-28T00:11:11;2.20;;;1.50;;
59338;SDS011;45117;50.960;5.500;2023-07-28T00:13:39;1.90;;;1.38;;
59338;SDS011;45117;50.960;5.500;2023-07-28T00:16:09;1.73;;;1.33;;
59338;SDS011;45117;50.960;5.500;2023-07-28T00:18:36;4.43;;;2.40;;
59338;SDS011;45117;50.960;5.500;2023-07-28T00:21:04;3.28;;;2.00;;
59338;SDS011;45117;50.960;5.500;2023-07-28T00:23:34;2.97;;;1.33;;
59338;SDS011;45117;50.960;5.500;2023-07-28T00:26:01;2.00;;;1.58;;
59338;SDS011;45117;50.960;5.500;2023-07-28T00:28:27;2.70;;;1.40;;
59338;SDS011;45117;50.960;5.500;2023-07-28T00:30:55;2.20;;;1.33;;
59338;SDS011;45117;50.960;5.500;2023-07-28T00:33:22;2.85;;;1.60;;
59338;SDS011;45117;50.960;5.500;2023-07-28T00:35:48;2.13;;;1.40;;
59338;SDS011;45117;50.960;5.500;2023-07-28T00:38:16;3.10;;;1.30;;
59338;SDS011;45117;50.960;5.500;2023-07-28T00:40:42;4.03;;;1.48;;
59338;SDS011;45117;50.960;5.500;2023-07-28T00:43:11;2.20;;;1.52;;
59338;SDS011;45117;50.960;5.500;2023-07-28T00:45:44;2.92;;;1.40;;
59338;SDS011;45117;50.960;5.500;2023-07-28T00:48:12;2.33;;;1.50;;
59338;SDS011;45117;50.960;5.500;2023-07-28T00:50:40;2.83;;;1.80;;
59338;SDS011;45117;50.960;5.500;2023-07-28T00:53:07;2.47;;;1.52;;
59338;SDS011;45117;50.960;5.500;2023-07-28T00:55:34;3.72;;;1.63;;
59338;SDS011;45117;50.960;5.500;2023-07-28T00:58:01;3.13;;;1.90;;
59338;SDS011;45117;50.960;5.500;2023-07-28T01:00:28;2.42;;;1.65;;
59338;SDS011;45117;50.960;5.500;2023-07-28T01:02:55;3.63;;;1.60;;
59338;SDS011;45117;50.960;5.500;2023-07-28T01:05:35;3.55;;;1.80;;
59338;SDS011;45117;50.960;5.500;2023-07-28T01:08:09;3.10;;;1.70;;
59338;SDS011;45117;50.960;5.500;2023-07-28T01:10:41;2.80;;;1.65;;
59338;SDS011;45117;50.960;5.500;2023-07-28T01:13:11;4.03;;;2.10;;
59338;SDS011;45117;50.960;5.500;2023-07-28T01:15:37;3.00;;;2.22;;
59338;SDS011;45117;50.960;5.500;2023-07-28T01:18:04;4.38;;;2.10;;
59338;SDS011;45117;50.960;5.500;2023-07-28T01:20:32;2.78;;;1.70;;
59338;SDS011;45117;50.960;5.500;2023-07-28T01:23:13;5.45;;;2.28;;
59338;SDS011;45117;50.960;5.500;2023-07-28T01:25:54;3.05;;;1.80;;
59338;SDS011;45117;50.960;5.500;2023-07-28T01:28:27;3.00;;;2.10;;
59338;SDS011;45117;50.960;5.500;2023-07-28T01:30:54;3.00;;;1.83;;
59338;SDS011;45117;50.960;5.500;2023-07-28T01:33:21;3.63;;;1.80;;
59338;SDS011;45117;50.960;5.500;2023-07-28T01:35:47;3.97;;;2.05;;
59338;SDS011;45117;50.960;5.500;2023-07-28T01:38:14;3.70;;;1.95;;
59338;SDS011;45117;50.960;5.500;2023-07-28T01:40:41;3.15;;;1.85;;
59338;SDS011;45117;50.960;5.500;2023-07-28T01:43:07;3.97;;;1.77;;
59338;SDS011;45117;50.960;5.500;2023-07-28T01:45:35;3.25;;;2.00;;
59338;SDS011;45117;50.960;5.500;2023-07-28T01:48:02;3.83;;;1.58;;
59338;SDS011;45117;50.960;5.500;2023-07-28T01:50:30;3.22;;;1.75;;
59338;SDS011;45117;50.960;5.500;2023-07-28T01:52:56;2.70;;;1.77;;
59338;SDS011;45117;50.960;5.500;2023-07-28T01:55:25;2.42;;;1.38;;
59338;SDS011;45117;50.960;5.500;2023-07-28T01:57:54;4.57;;;2.33;;
59338;SDS011;45117;50.960;5.500;2023-07-28T02:00:22;3.17;;;1.55;;
59338;SDS011;45117;50.960;5.500;2023-07-28T02:02:50;2.78;;;1.55;;
59338;SDS011;45117;50.960;5.500;2023-07-28T02:05:18;2.00;;;1.50;;
59338;SDS011;45117;50.960;5.500;2023-07-28T02:07:45;2.38;;;1.30;;
59338;SDS011;45117;50.960;5.500;2023-07-28T02:10:12;1.83;;;1.42;;
59338;SDS011;45117;50.960;5.500;2023-07-28T02:12:39;1.90;;;1.40;;
59338;SDS011;45117;50.960;5.500;2023-07-28T02:15:06;1.90;;;1.20;;
59338;SDS011;45117;50.960;5.500;2023-07-28T02:17:34;2.20;;;1.42;;
59338;SDS011;45117;50.960;5.500;2023-07-28T02:20:04;3.05;;;1.40;;
59338;SDS011;45117;50.960;5.500;2023-07-28T02:22:32;2.17;;;1.35;;
59338;SDS011;45117;50.960;5.500;2023-07-28T02:24:58;3.70;;;1.35;;
59338;SDS011;45117;50.960;5.500;2023-07-28T02:27:26;2.92;;;1.45;;
59338;SDS011;45117;50.960;5.500;2023-07-28T02:29:53;4.28;;;2.20;;
59338;SDS011;45117;50.960;5.500;2023-07-28T02:32:19;2.22;;;1.80;;
59338;SDS011;45117;50.960;5.500;2023-07-28T02:34:46;3.35;;;2.20;;
59338;SDS011;45117;50.960;5.500;2023-07-28T02:37:15;2.75;;;2.00;;
59338;SDS011;45117;50.960;5.500;2023-07-28T02:39:42;4.32;;;1.80;;
59338;SDS011;45117;50.960;5.500;2023-07-28T02:42:08;2.60;;;2.03;;
59338;SDS011;45117;50.960;5.500;2023-07-28T02:44:35;3.45;;;2.80;;
59338;SDS011;45117;50.960;5.500;2023-07-28T02:47:01;3.17;;;1.80;;
59338;SDS011;45117;50.960;5.500;2023-07-28T02:49:28;3.53;;;1.90;;
59338;SDS011;45117;50.960;5.500;2023-07-28T02:51:55;2.10;;;1.60;;
59338;SDS011;45117;50.960;5.500;2023-07-28T02:54:23;3.05;;;1.40;;
59338;SDS011;45117;50.960;5.500;2023-07-28T02:56:50;3.00;;;2.20;;
59338;SDS011;45117;50.960;5.500;2023-07-28T02:59:17;2.22;;;1.70;;
59338;SDS011;45117;50.960;5.500;2023-07-28T03:01:44;6.70;;;1.77;;
59338;SDS011;45117;50.960;5.500;2023-07-28T03:04:10;3.95;;;1.85;;
59338;SDS011;45117;50.960;5.500;2023-07-28T03:06:37;2.63;;;1.40;;
59338;SDS011;45117;50.960;5.500;2023-07-28T03:09:03;2.60;;;1.90;;
59338;SDS011;45117;50.960;5.500;2023-07-28T03:11:38;4.00;;;1.80;;
59338;SDS011;45117;50.960;5.500;2023-07-28T03:14:05;3.95;;;1.80;;
59338;SDS011;45117;50.960;5.500;2023-07-28T03:16:43;4.40;;;2.20;;
59338;SDS011;45117;50.960;5.500;2023-07-28T03:19:18;5.22;;;2.30;;
59338;SDS011;45117;50.960;5.500;2023-07-28T03:21:45;4.28;;;2.70;;
59338;SDS011;45117;50.960;5.500;2023-07-28T03:24:11;3.25;;;2.30;;
59338;SDS011;45117;50.960;5.500;2023-07-28T03:26:39;5.28;;;2.50;;
59338;SDS011;45117;50.960;5.500;2023-07-28T03:29:06;4.22;;;2.38;;
59338;SDS011;45117;50.960;5.500;2023-07-28T03:31:37;3.83;;;2.63;;
59338;SDS011;45117;50.960;5.500;2023-07-28T03:34:19;3.65;;;2.70;;
59338;SDS011;45117;50.960;5.500;2023-07-28T03:36:53;4.47;;;3.25;;
59338;SDS011;45117;50.960;5.500;2023-07-28T03:39:19;4.57;;;2.88;;
59338;SDS011;45117;50.960;5.500;2023-07-28T03:41:50;4.50;;;2.58;;
59338;SDS011;45117;50.960;5.500;2023-07-28T03:44:17;5.10;;;3.17;;
59338;SDS011;45117;50.960;5.500;2023-07-28T03:46:44;4.05;;;2.90;;
59338;SDS011;45117;50.960;5.500;2023-07-28T03:49:18;7.28;;;3.83;;
59338;SDS011;45117;50.960;5.500;2023-07-28T03:52:26;6.30;;;3.38;;
59338;SDS011;45117;50.960;5.500;2023-07-28T03:54:53;6.25;;;3.30;;
59338;SDS011;45117;50.960;5.500;2023-07-28T03:57:20;4.90;;;3.00;;
59338;SDS011;45117;50.960;5.500;2023-07-28T03:59:47;6.10;;;3.72;;
59338;SDS011;45117;50.960;5.500;2023-07-28T04:02:14;6.40;;;3.47;;
59338;SDS011;45117;50.960;5.500;2023-07-28T04:04:40;6.18;;;3.70;;
59338;SDS011;45117;50.960;5.500;2023-07-28T04:07:07;6.72;;;4.25;;
59338;SDS011;45117;50.960;5.500;2023-07-28T04:09:34;8.38;;;4.95;;
59338;SDS011;45117;50.960;5.500;2023-07-28T04:12:00;7.53;;;4.45;;
59338;SDS011;45117;50.960;5.500;2023-07-28T04:14:28;5.10;;;2.95;;
59338;SDS011;45117;50.960;5.500;2023-07-28T04:16:55;8.48;;;5.30;;
59338;SDS011;45117;50.960;5.500;2023-07-28T04:19:21;8.23;;;5.00;;
59338;SDS011;45117;50.960;5.500;2023-07-28T04:21:48;10.32;;;5.32;;
59338;SDS011;45117;50.960;5.500;2023-07-28T04:24:15;8.57;;;5.40;;
59338;SDS011;45117;50.960;5.500;2023-07-28T04:26:41;7.68;;;4.40;;
59338;SDS011;45117;50.960;5.500;2023-07-28T04:29:08;11.52;;;5.78;;
59338;SDS011;45117;50.960;5.500;2023-07-28T04:31:36;9.00;;;5.40;;
59338;SDS011;45117;50.960;5.500;2023-07-28T04:34:03;8.43;;;4.95;;
59338;SDS011;45117;50.960;5.500;2023-07-28T04:36:29;10.63;;;5.55;;
59338;SDS011;45117;50.960;5.500;2023-07-28T04:38:56;9.65;;;5.40;;
59338;SDS011;45117;50.960;5.500;2023-07-28T04:41:22;10.02;;;5.60;;
59338;SDS011;45117;50.960;5.500;2023-07-28T04:43:49;9.85;;;5.53;;
59338;SDS011;45117;50.960;5.500;2023-07-28T04:46:16;8.60;;;5.38;;
59338;SDS011;45117;50.960;5.500;2023-07-28T04:48:44;7.75;;;5.38;;
59338;SDS011;45117;50.960;5.500;2023-07-28T04:51:10;9.55;;;5.38;;
59338;SDS011;45117;50.960;5.500;2023-07-28T04:53:37;9.27;;;4.55;;
59338;SDS011;45117;50.960;5.500;2023-07-28T04:56:03;12.02;;;5.15;;
59338;SDS011;45117;50.960;5.500;2023-07-28T04:58:30;9.07;;;5.00;;
59338;SDS011;45117;50.960;5.500;2023-07-28T05:00:57;12.38;;;5.20;;
59338;SDS011;45117;50.960;5.500;2023-07-28T05:03:23;7.47;;;4.25;;
59338;SDS011;45117;50.960;5.500;2023-07-28T05:05:51;7.80;;;4.60;;
59338;SDS011;45117;50.960;5.500;2023-07-28T05:08:18;7.40;;;4.40;;
59338;SDS011;45117;50.960;5.500;2023-07-28T05:10:44;9.25;;;4.65;;
59338;SDS011;45117;50.960;5.500;2023-07-28T05:13:11;8.55;;;4.28;;
59338;SDS011;45117;50.960;5.500;2023-07-28T05:15:37;6.60;;;4.55;;
59338;SDS011;45117;50.960;5.500;2023-07-28T05:18:04;7.68;;;4.00;;
59338;SDS011;45117;50.960;5.500;2023-07-28T05:20:31;6.60;;;3.70;;
59338;SDS011;45117;50.960;5.500;2023-07-28T05:22:59;8.98;;;3.60;;
59338;SDS011;45117;50.960;5.500;2023-07-28T05:25:25;5.88;;;3.72;;
59338;SDS011;45117;50.960;5.500;2023-07-28T05:27:52;7.68;;;3.83;;
59338;SDS011;45117;50.960;5.500;2023-07-28T05:30:18;5.85;;;3.70;;
59338;SDS011;45117;50.960;5.500;2023-07-28T05:32:47;5.75;;;3.25;;
59338;SDS011;45117;50.960;5.500;2023-07-28T05:35:14;4.00;;;3.30;;
59338;SDS011;45117;50.960;5.500;2023-07-28T05:37:41;4.88;;;3.25;;
59338;SDS011;45117;50.960;5.500;2023-07-28T05:40:10;6.45;;;3.00;;
59338;SDS011;45117;50.960;5.500;2023-07-28T05:42:38;3.95;;;2.78;;
59338;SDS011;45117;50.960;5.500;2023-07-28T05:45:05;5.30;;;3.30;;
59338;SDS011;45117;50.960;5.500;2023-07-28T05:47:32;5.70;;;2.97;;
59338;SDS011;45117;50.960;5.500;2023-07-28T05:49:59;6.18;;;2.63;;
59338;SDS011;45117;50.960;5.500;2023-07-28T05:52:26;5.90;;;2.60;;
59338;SDS011;45117;50.960;5.500;2023-07-28T05:54:52;6.00;;;2.58;;
59338;SDS011;45117;50.960;5.500;2023-07-28T05:57:20;5.03;;;2.67;;
59338;SDS011;45117;50.960;5.500;2023-07-28T05:59:47;7.55;;;2.83;;
59338;SDS011;45117;50.960;5.500;2023-07-28T06:02:14;5.60;;;2.65;;
59338;SDS011;45117;50.960;5.500;2023-07-28T06:04:40;5.80;;;2.67;;
59338;SDS011;45117;50.960;5.500;2023-07-28T06:07:07;5.00;;;2.80;;
59338;SDS011;45117;50.960;5.500;2023-07-28T06:09:35;4.55;;;2.53;;
59338;SDS011;45117;50.960;5.500;2023-07-28T06:12:02;5.25;;;2.75;;
59338;SDS011;45117;50.960;5.500;2023-07-28T06:14:31;5.72;;;2.90;;
59338;SDS011;45117;50.960;5.500;2023-07-28T06:16:57;3.40;;;2.40;;
59338;SDS011;45117;50.960;5.500;2023-07-28T06:19:24;6.50;;;2.70;;
59338;SDS011;45117;50.960;5.500;2023-07-28T06:21:51;4.57;;;2.30;;
59338;SDS011;45117;50.960;5.500;2023-07-28T06:24:17;4.72;;;2.40;;
59338;SDS011;45117;50.960;5.500;2023-07-28T06:26:47;4.35;;;2.15;;
59338;SDS011;45117;50.960;5.500;2023-07-28T06:29:15;6.03;;;2.33;;
59338;SDS011;45117;50.960;5.500;2023-07-28T06:31:43;5.22;;;2.17;;
59338;SDS011;45117;50.960;5.500;2023-07-28T06:34:10;2.67;;;2.25;;
59338;SDS011;45117;50.960;5.500;2023-07-28T06:36:36;5.88;;;2.67;;
59338;SDS011;45117;50.960;5.500;2023-07-28T06:39:05;5.72;;;2.38;;
59338;SDS011;45117;50.960;5.500;2023-07-28T06:41:32;4.05;;;1.80;;
59338;SDS011;45117;50.960;5.500;2023-07-28T06:43:59;3.22;;;2.22;;
59338;SDS011;45117;50.960;5.500;2023-07-28T06:46:27;3.00;;;2.10;;
59338;SDS011;45117;50.960;5.500;2023-07-28T06:48:58;3.15;;;1.50;;
59338;SDS011;45117;50.960;5.500;2023-07-28T06:51:27;5.53;;;2.10;;
59338;SDS011;45117;50.960;5.500;2023-07-28T06:53:54;2.42;;;1.65;;
59338;SDS011;45117;50.960;5.500;2023-07-28T06:56:21;2.50;;;1.60;;
59338;SDS011;45117;50.960;5.500;2023-07-28T06:58:48;5.10;;;1.90;;
59338;SDS011;45117;50.960;5.500;2023-07-28T07:01:14;3.47;;;1.77;;
59338;SDS011;45117;50.960;5.500;2023-07-28T07:03:41;3.47;;;1.67;;
59338;SDS011;45117;50.960;5.500;2023-07-28T07:06:09;2.97;;;1.40;;
59338;SDS011;45117;50.960;5.500;2023-07-28T07:08:36;3.78;;;1.60;;
59338;SDS011;45117;50.960;5.500;2023-07-28T07:11:03;2.97;;;1.40;;
59338;SDS011;45117;50.960;5.500;2023-07-28T07:13:31;3.75;;;1.80;;
59338;SDS011;45117;50.960;5.500;2023-07-28T07:15:57;2.67;;;1.63;;
59338;SDS011;45117;50.960;5.500;2023-07-28T07:18:24;1.88;;;1.52;;
59338;SDS011;45117;50.960;5.500;2023-07-28T07:20:50;3.50;;;1.70;;
59338;SDS011;45117;50.960;5.500;2023-07-28T07:23:18;2.13;;;1.40;;
59338;SDS011;45117;50.960;5.500;2023-07-28T07:25:45;3.63;;;1.60;;
59338;SDS011;45117;50.960;5.500;2023-07-28T07:28:15;1.88;;;1.50;;
59338;SDS011;45117;50.960;5.500;2023-07-28T07:30:42;2.85;;;1.58;;
59338;SDS011;45117;50.960;5.500;2023-07-28T07:33:08;1.73;;;1.05;;
59338;SDS011;45117;50.960;5.500;2023-07-28T07:35:35;1.30;;;1.20;;
59338;SDS011;45117;50.960;5.500;2023-07-28T07:38:04;2.25;;;0.93;;
59338;SDS011;45117;50.960;5.500;2023-07-28T07:40:35;3.38;;;0.85;;
59338;SDS011;45117;50.960;5.500;2023-07-28T07:43:02;1.80;;;1.20;;
59338;SDS011;45117;50.960;5.500;2023-07-28T07:45:33;2.40;;;1.58;;
59338;SDS011;45117;50.960;5.500;2023-07-28T07:48:00;1.55;;;1.30;;
59338;SDS011;45117;50.960;5.500;2023-07-28T07:50:28;1.88;;;0.95;;
59338;SDS011;45117;50.960;5.500;2023-07-28T07:52:55;1.33;;;0.90;;
59338;SDS011;45117;50.960;5.500;2023-07-28T07:55:22;2.17;;;1.00;;
59338;SDS011;45117;50.960;5.500;2023-07-28T07:57:50;2.50;;;1.13;;
59338;SDS011;45117;50.960;5.500;2023-07-28T08:00:16;3.20;;;1.08;;
59338;SDS011;45117;50.960;5.500;2023-07-28T08:02:43;1.95;;;0.98;;
59338;SDS011;45117;50.960;5.500;2023-07-28T08:05:10;1.02;;;0.90;;
59338;SDS011;45117;50.960;5.500;2023-07-28T08:07:37;2.40;;;1.00;;
59338;SDS011;45117;50.960;5.500;2023-07-28T08:10:04;2.03;;;0.70;;
59338;SDS011;45117;50.960;5.500;2023-07-28T08:12:38;0.95;;;0.77;;
59338;SDS011;45117;50.960;5.500;2023-07-28T08:15:08;4.20;;;1.00;;
59338;SDS011;45117;50.960;5.500;2023-07-28T08:17:35;1.63;;;0.88;;
59338;SDS011;45117;50.960;5.500;2023-07-28T08:20:02;0.95;;;0.90;;
59338;SDS011;45117;50.960;5.500;2023-07-28T08:22:29;0.73;;;0.60;;
59338;SDS011;45117;50.960;5.500;2023-07-28T08:24:55;1.65;;;1.00;;
59338;SDS011;45117;50.960;5.500;2023-07-28T08:27:22;2.08;;;0.88;;
59338;SDS011;45117;50.960;5.500;2023-07-28T08:29:49;0.95;;;0.70;;
59338;SDS011;45117;50.960;5.500;2023-07-28T08:32:17;3.65;;;0.88;;
59338;SDS011;45117;50.960;5.500;2023-07-28T08:34:44;0.82;;;0.70;;
59338;SDS011;45117;50.960;5.500;2023-07-28T08:37:11;1.85;;;0.70;;
59338;SDS011;45117;50.960;5.500;2023-07-28T08:39:38;1.33;;;0.70;;
59338;SDS011;45117;50.960;5.500;2023-07-28T08:42:05;0.80;;;0.63;;
59338;SDS011;45117;50.960;5.500;2023-07-28T08:44:32;3.08;;;0.80;;
59338;SDS011;45117;50.960;5.500;2023-07-28T08:47:00;2.38;;;0.60;;
59338;SDS011;45117;50.960;5.500;2023-07-28T08:49:29;1.38;;;0.60;;
59338;SDS011;45117;50.960;5.500;2023-07-28T08:51:58;2.17;;;0.90;;
59338;SDS011;45117;50.960;5.500;2023-07-28T08:54:25;1.85;;;0.63;;
59338;SDS011;45117;50.960;5.500;2023-07-28T08:56:52;0.50;;;0.50;;
59338;SDS011;45117;50.960;5.500;2023-07-28T08:59:20;1.65;;;0.50;;
59338;SDS011;45117;50.960;5.500;2023-07-28T09:01:49;1.40;;;0.80;;
59338;SDS011;45117;50.960;5.500;2023-07-28T09:04:16;1.73;;;0.50;;
59338;SDS011;45117;50.960;5.500;2023-07-28T09:06:45;1.88;;;0.50;;
59338;SDS011;45117;50.960;5.500;2023-07-28T09:09:12;1.52;;;0.68;;
59338;SDS011;45117;50.960;5.500;2023-07-28T09:11:45;1.63;;;0.57;;
59338;SDS011;45117;50.960;5.500;2023-07-28T09:14:13;0.50;;;0.50;;
59338;SDS011;45117;50.960;5.500;2023-07-28T09:16:41;0.80;;;0.60;;
59338;SDS011;45117;50.960;5.500;2023-07-28T09:19:10;2.55;;;0.70;;
59338;SDS011;45117;50.960;5.500;2023-07-28T09:21:37;0.80;;;0.60;;
59338;SDS011;45117;50.960;5.500;2023-07-28T09:24:07;1.05;;;0.60;;
59338;SDS011;45117;50.960;5.500;2023-07-28T09:26:36;2.22;;;0.70;;
59338;SDS011;45117;50.960;5.500;2023-07-28T09:29:10;0.80;;;0.60;;
59338;SDS011;45117;50.960;5.500;2023-07-28T09:31:38;0.60;;;0.60;;
59338;SDS011;45117;50.960;5.500;2023-07-28T09:34:06;0.60;;;0.60;;
59338;SDS011;45117;50.960;5.500;2023-07-28T09:36:35;1.90;;;0.40;;
59338;SDS011;45117;50.960;5.500;2023-07-28T09:42:00;0.47;;;0.40;;
59338;SDS011;45117;50.960;5.500;2023-07-28T09:44:28;1.25;;;0.50;;
59338;SDS011;45117;50.960;5.500;2023-07-28T09:46:56;0.40;;;0.40;;
59338;SDS011;45117;50.960;5.500;2023-07-28T09:49:26;0.98;;;0.40;;
59338;SDS011;45117;50.960;5.500;2023-07-28T09:51:55;2.35;;;0.60;;
59338;SDS011;45117;50.960;5.500;2023-07-28T09:54:28;1.55;;;0.60;;
59338;SDS011;45117;50.960;5.500;2023-07-28T09:56:56;1.15;;;0.70;;
59338;SDS011;45117;50.960;5.500;2023-07-28T09:59:24;1.50;;;0.70;;
59338;SDS011;45117;50.960;5.500;2023-07-28T10:01:55;1.58;;;0.80;;
59338;SDS011;45117;50.960;5.500;2023-07-28T10:04:22;1.27;;;0.80;;
59338;SDS011;45117;50.960;5.500;2023-07-28T10:06:49;1.48;;;0.82;;
59338;SDS011;45117;50.960;5.500;2023-07-28T10:09:17;1.60;;;1.10;;
59338;SDS011;45117;50.960;5.500;2023-07-28T10:11:46;0.88;;;0.70;;
59338;SDS011;45117;50.960;5.500;2023-07-28T10:14:14;0.90;;;0.70;;
59338;SDS011;45117;50.960;5.500;2023-07-28T10:16:55;0.90;;;0.60;;
59338;SDS011;45117;50.960;5.500;2023-07-28T10:19:24;1.13;;;0.50;;
59338;SDS011;45117;50.960;5.500;2023-07-28T10:21:58;0.77;;;0.60;;
59338;SDS011;45117;50.960;5.500;2023-07-28T10:27:30;1.83;;;0.60;;
59338;SDS011;45117;50.960;5.500;2023-07-28T10:30:02;0.73;;;0.68;;
59338;SDS011;45117;50.960;5.500;2023-07-28T10:32:36;1.63;;;0.70;;
59338;SDS011;45117;50.960;5.500;2023-07-28T10:37:33;1.00;;;0.80;;
59338;SDS011;45117;50.960;5.500;2023-07-28T10:42:50;1.30;;;0.85;;
59338;SDS011;45117;50.960;5.500;2023-07-28T10:45:18;2.58;;;1.20;;
59338;SDS011;45117;50.960;5.500;2023-07-28T10:47:50;1.80;;;1.30;;
59338;SDS011;45117;50.960;5.500;2023-07-28T10:50:18;1.08;;;0.88;;
59338;SDS011;45117;50.960;5.500;2023-07-28T10:52:45;1.08;;;0.85;;
59338;SDS011;45117;50.960;5.500;2023-07-28T10:55:16;1.58;;;0.73;;
59338;SDS011;45117;50.960;5.500;2023-07-28T10:57:44;1.20;;;1.00;;
59338;SDS011;45117;50.960;5.500;2023-07-28T11:07:54;1.25;;;0.70;;
59338;SDS011;45117;50.960;5.500;2023-07-28T11:10:28;1.10;;;0.82;;
59338;SDS011;45117;50.960;5.500;2023-07-28T11:13:00;1.08;;;0.80;;
59338;SDS011;45117;50.960;5.500;2023-07-28T11:18:40;2.15;;;0.88;;
59338;SDS011;45117;50.960;5.500;2023-07-28T11:21:08;3.80;;;1.33;;
59338;SDS011;45117;50.960;5.500;2023-07-28T11:23:55;1.13;;;1.02;;
59338;SDS011;45117;50.960;5.500;2023-07-28T11:26:23;2.10;;;0.93;;
59338;SDS011;45117;50.960;5.500;2023-07-28T11:28:56;2.63;;;1.05;;
59338;SDS011;45117;50.960;5.500;2023-07-28T11:31:35;1.48;;;1.05;;
59338;SDS011;45117;50.960;5.500;2023-07-28T11:34:45;1.33;;;1.00;;
59338;SDS011;45117;50.960;5.500;2023-07-28T11:37:36;3.38;;;1.10;;
59338;SDS011;45117;50.960;5.500;2023-07-28T11:40:14;3.28;;;0.98;;
59338;SDS011;45117;50.960;5.500;2023-07-28T11:48:29;2.00;;;0.90;;
59338;SDS011;45117;50.960;5.500;2023-07-28T11:50:59;1.50;;;0.80;;
59338;SDS011;45117;50.960;5.500;2023-07-28T11:56:28;2.05;;;1.10;;
59338;SDS011;45117;50.960;5.500;2023-07-28T11:58:55;1.85;;;0.80;;
59338;SDS011;45117;50.960;5.500;2023-07-28T12:01:23;1.60;;;1.30;;
59338;SDS011;45117;50.960;5.500;2023-07-28T12:03:50;1.35;;;1.10;;
59338;SDS011;45117;50.960;5.500;2023-07-28T12:06:17;1.58;;;1.23;;
59338;SDS011;45117;50.960;5.500;2023-07-28T12:08:43;1.40;;;1.30;;
59338;SDS011;45117;50.960;5.500;2023-07-28T12:11:13;1.33;;;1.23;;
59338;SDS011;45117;50.960;5.500;2023-07-28T12:13:51;1.40;;;1.10;;
59338;SDS011;45117;50.960;5.500;2023-07-28T12:16:39;2.65;;;1.17;;
59338;SDS011;45117;50.960;5.500;2023-07-28T12:19:07;1.05;;;0.90;;
59338;SDS011;45117;50.960;5.500;2023-07-28T12:21:45;0.80;;;0.80;;
59338;SDS011;45117;50.960;5.500;2023-07-28T12:24:35;2.05;;;1.13;;
59338;SDS011;45117;50.960;5.500;2023-07-28T12:27:09;1.13;;;0.70;;
59338;SDS011;45117;50.960;5.500;2023-07-28T13:05:15;0.50;;;0.50;;
59338;SDS011;45117;50.960;5.500;2023-07-28T13:07:42;1.00;;;0.70;;
59338;SDS011;45117;50.960;5.500;2023-07-28T13:10:10;2.20;;;0.60;;
59338;SDS011;45117;50.960;5.500;2023-07-28T13:12:37;0.93;;;0.70;;
59338;SDS011;45117;50.960;5.500;2023-07-28T13:15:04;0.63;;;0.57;;
59338;SDS011;45117;50.960;5.500;2023-07-28T13:17:32;0.63;;;0.60;;
59338;SDS011;45117;50.960;5.500;2023-07-28T13:19:58;1.08;;;0.70;;
59338;SDS011;45117;50.960;5.500;2023-07-28T13:22:26;1.35;;;0.70;;
59338;SDS011;45117;50.960;5.500;2023-07-28T13:24:53;1.20;;;0.60;;
59338;SDS011;45117;50.960;5.500;2023-07-28T13:27:20;1.63;;;0.68;;
59338;SDS011;45117;50.960;5.500;2023-07-28T13:29:46;1.05;;;0.50;;
59338;SDS011;45117;50.960;5.500;2023-07-28T13:32:17;2.05;;;0.60;;
59338;SDS011;45117;50.960;5.500;2023-07-28T13:34:44;1.65;;;0.80;;
59338;SDS011;45117;50.960;5.500;2023-07-28T13:37:11;0.85;;;0.70;;
59338;SDS011;45117;50.960;5.500;2023-07-28T13:39:39;0.50;;;0.50;;
59338;SDS011;45117;50.960;5.500;2023-07-28T13:42:09;0.95;;;0.80;;
59338;SDS011;45117;50.960;5.500;2023-07-28T13:44:41;1.35;;;0.70;;
59338;SDS011;45117;50.960;5.500;2023-07-28T13:47:07;0.63;;;0.57;;
59338;SDS011;45117;50.960;5.500;2023-07-28T13:49:34;1.27;;;0.65;;
59338;SDS011;45117;50.960;5.500;2023-07-28T13:52:01;1.45;;;0.70;;
59338;SDS011;45117;50.960;5.500;2023-07-28T13:54:28;1.30;;;0.77;;
59338;SDS011;45117;50.960;5.500;2023-07-28T13:56:56;2.65;;;0.73;;
59338;SDS011;45117;50.960;5.500;2023-07-28T13:59:25;0.80;;;0.63;;
59338;SDS011;45117;50.960;5.500;2023-07-28T14:01:51;0.70;;;0.60;;
59338;SDS011;45117;50.960;5.500;2023-07-28T14:04:18;0.77;;;0.60;;
59338;SDS011;45117;50.960;5.500;2023-07-28T14:06:45;0.82;;;0.65;;
59338;SDS011;45117;50.960;5.500;2023-07-28T14:09:11;1.60;;;0.73;;
59338;SDS011;45117;50.960;5.500;2023-07-28T14:11:39;0.57;;;0.50;;
59338;SDS011;45117;50.960;5.500;2023-07-28T14:14:07;3.17;;;0.80;;
59338;SDS011;45117;50.960;5.500;2023-07-28T14:16:41;2.40;;;0.68;;
59338;SDS011;45117;50.960;5.500;2023-07-28T14:19:24;1.15;;;0.60;;
59338;SDS011;45117;50.960;5.500;2023-07-28T14:21:51;0.70;;;0.70;;
59338;SDS011;45117;50.960;5.500;2023-07-28T14:24:17;1.67;;;0.70;;
59338;SDS011;45117;50.960;5.500;2023-07-28T14:26:44;1.48;;;0.70;;
59338;SDS011;45117;50.960;5.500;2023-07-28T14:29:12;0.75;;;0.75;;
59338;SDS011;45117;50.960;5.500;2023-07-28T14:31:39;1.30;;;0.60;;
59338;SDS011;45117;50.960;5.500;2023-07-28T14:34:06;1.08;;;0.80;;
59338;SDS011;45117;50.960;5.500;2023-07-28T14:37:00;1.27;;;0.80;;
59338;SDS011;45117;50.960;5.500;2023-07-28T14:43:16;1.00;;;0.68;;
59338;SDS011;45117;50.960;5.500;2023-07-28T14:45:47;1.23;;;0.80;;
59338;SDS011;45117;50.960;5.500;2023-07-28T14:48:15;2.65;;;0.60;;
59338;SDS011;45117;50.960;5.500;2023-07-28T14:50:43;2.25;;;0.73;;
59338;SDS011;45117;50.960;5.500;2023-07-28T14:53:29;1.67;;;0.68;;
59338;SDS011;45117;50.960;5.500;2023-07-28T14:55:57;1.02;;;0.70;;
59338;SDS011;45117;50.960;5.500;2023-07-28T14:58:37;1.10;;;0.77;;
59338;SDS011;45117;50.960;5.500;2023-07-28T15:01:24;1.75;;;0.80;;
59338;SDS011;45117;50.960;5.500;2023-07-28T15:04:10;1.77;;;0.80;;
59338;SDS011;45117;50.960;5.500;2023-07-28T15:06:39;1.23;;;0.70;;
59338;SDS011;45117;50.960;5.500;2023-07-28T15:09:06;1.58;;;1.00;;
59338;SDS011;45117;50.960;5.500;2023-07-28T15:11:32;1.15;;;0.70;;
59338;SDS011;45117;50.960;5.500;2023-07-28T15:13:59;1.13;;;0.82;;
59338;SDS011;45117;50.960;5.500;2023-07-28T15:16:27;2.10;;;0.70;;
59338;SDS011;45117;50.960;5.500;2023-07-28T15:18:54;1.58;;;0.70;;
59338;SDS011;45117;50.960;5.500;2023-07-28T15:21:20;1.23;;;0.80;;
59338;SDS011;45117;50.960;5.500;2023-07-28T15:23:52;1.23;;;0.93;;
59338;SDS011;45117;50.960;5.500;2023-07-28T15:26:23;2.05;;;0.93;;
59338;SDS011;45117;50.960;5.500;2023-07-28T15:29:28;1.88;;;1.10;;
59338;SDS011;45117;50.960;5.500;2023-07-28T15:32:44;1.50;;;0.90;;
59338;SDS011;45117;50.960;5.500;2023-07-28T15:36:00;1.73;;;1.25;;
59338;SDS011;45117;50.960;5.500;2023-07-28T15:42:34;2.47;;;1.00;;
59338;SDS011;45117;50.960;5.500;2023-07-28T15:45:01;1.55;;;1.20;;
59338;SDS011;45117;50.960;5.500;2023-07-28T15:47:28;1.00;;;0.90;;
59338;SDS011;45117;50.960;5.500;2023-07-28T15:49:59;1.50;;;1.02;;
59338;SDS011;45117;50.960;5.500;2023-07-28T15:52:26;2.17;;;1.00;;
59338;SDS011;45117;50.960;5.500;2023-07-28T15:54:52;2.67;;;1.00;;
59338;SDS011;45117;50.960;5.500;2023-07-28T15:57:29;3.08;;;0.90;;
59338;SDS011;45117;50.960;5.500;2023-07-28T16:00:32;1.15;;;0.95;;
59338;SDS011;45117;50.960;5.500;2023-07-28T16:02:59;1.55;;;1.25;;
59338;SDS011;45117;50.960;5.500;2023-07-28T16:05:27;2.72;;;0.98;;
59338;SDS011;45117;50.960;5.500;2023-07-28T16:07:54;1.42;;;0.80;;
59338;SDS011;45117;50.960;5.500;2023-07-28T16:10:21;2.97;;;1.20;;
59338;SDS011;45117;50.960;5.500;2023-07-28T16:12:47;1.58;;;1.20;;
59338;SDS011;45117;50.960;5.500;2023-07-28T16:15:14;4.28;;;1.20;;